EW7498 Weather Reports


Display with metric or nautical units.
time (UTC)temp
F
wind
direction
speed
MPH
gust
MPH
rain 1hr
in
rain 24hr
in
rain mn
in
humidity
%
barometer
mb
20201023020947 28 348 14.0 20.0 0.00 0.03 0.03 89 1024.9
20201023020448 28 347 13.0 20.0 0.00 0.03 0.03 89 1024.9
20201023015947 28 352 14.0 21.0 0.00 0.03 0.03 90 1024.9
20201023015450 28 353 16.0 22.0 0.00 0.03 0.03 90 1024.8
20201023014947 28 356 14.0 22.0 0.00 0.03 0.03 90 1024.7
20201023014447 28 356 15.0 24.0 0.00 0.03 0.03 90 1024.8
20201023013948 28 350 14.0 24.0 0.00 0.03 0.03 90 1024.8
20201023013448 28 345 13.0 20.0 0.00 0.03 0.03 90 1024.7
20201023012947 28 345 13.0 18.0 0.00 0.03 0.03 90 1024.7
20201023012447 28 346 11.0 18.0 0.00 0.03 0.03 89 1024.6
20201023011949 28 346 11.0 18.0 0.00 0.03 0.03 89 1024.5
20201023011447 28 348 13.0 18.0 0.00 0.03 0.03 89 1024.6
20201023010950 28 356 12.0 19.0 0.00 0.03 0.03 89 1024.5
20201023010448 28 359 12.0 20.0 0.00 0.03 0.03 89 1024.3
20201023005953 28 353 13.0 20.0 0.00 0.03 0.03 89 1024.0
20201023005449 28 350 12.0 18.0 0.00 0.03 0.03 89 1023.8
20201023004948 28 347 12.0 15.0 0.00 0.03 0.03 89 1023.9
20201023004448 28 351 12.0 15.0 0.00 0.03 0.03 89 1024.1
20201023003954 28 357 13.0 20.0 0.00 0.03 0.03 89 1023.9
20201023003451 28 354 12.0 20.0 0.00 0.03 0.03 88 1023.7
20201023002947 28 354 12.0 20.0 0.00 0.03 0.03 89 1023.6
20201023002449 28 355 12.0 20.0 0.00 0.03 0.03 88 1023.3
20201023002000 28 358 10.0 20.0 0.00 0.03 0.03 89 1023.1
20201023001447 28 1 10.0 15.0 0.00 0.03 0.03 89 1023.1
20201023000950 28 4 11.0 19.0 0.00 0.03 0.03 88 1023.0
20201023000454 28 5 13.0 20.0 0.00 0.03 0.03 88 1023.1
20201022235947 28 1 12.0 20.0 0.00 0.03 0.03 88 1023.0
20201022235448 28 354 11.0 18.0 0.00 0.03 0.03 89 1022.8
20201022234948 28 352 12.0 19.0 0.00 0.03 0.03 88 1022.7
20201022234447 28 351 13.0 21.0 0.00 0.03 0.03 89 1022.7
20201022233952 28 346 12.0 21.0 0.00 0.03 0.03 89 1022.6
20201022233450 28 345 10.0 18.0 0.00 0.03 0.03 89 1022.6
20201022232946 28 352 10.0 18.0 0.00 0.03 0.03 89 1022.6
20201022232448 28 359 11.0 18.0 0.00 0.03 0.03 89 1022.3
20201022231951 28 355 11.0 18.0 0.00 0.03 0.03 88 1022.3
20201022231449 28 346 9.0 14.0 0.00 0.03 0.03 88 1022.4
20201022230950 28 344 10.0 20.0 0.00 0.03 0.03 88 1022.3
20201022230446 28 348 12.0 20.0 0.00 0.03 0.03 88 1022.2
20201022225947 28 354 11.0 16.0 0.00 0.03 0.03 88 1022.2
20201022225448 28 357 11.0 18.0 0.00 0.03 0.03 89 1021.7
20201022224949 29 358 12.0 19.0 0.00 0.03 0.03 88 1021.6
20201022224450 29 358 9.0 19.0 0.00 0.03 0.03 88 1021.7
20201022223948 29 359 7.0 12.0 0.00 0.03 0.03 88 1021.7
20201022223448 29 4 10.0 21.0 0.00 0.03 0.03 88 1021.5
20201022222957 29 2 12.0 21.0 0.00 0.03 0.03 88 1021.3
20201022222446 29 358 12.0 18.0 0.00 0.03 0.03 88 1021.1
20201022221947 29 359 13.0 18.0 0.00 0.03 0.03 88 1021.2
20201022221448 29 2 13.0 19.0 0.00 0.03 0.03 88 1021.0
20201022220954 29 4 12.0 19.0 0.00 0.03 0.03 88 1021.0
20201022220453 29 358 11.0 15.0 0.00 0.03 0.03 89 1020.9
20201022215950 29 357 12.0 18.0 0.00 0.03 0.03 89 1020.8
20201022215448 29 359 13.0 19.0 0.00 0.03 0.03 89 1020.6
20201022214947 29 358 14.0 19.0 0.00 0.03 0.03 89 1020.5
20201022214452 29 358 12.0 19.0 0.00 0.03 0.03 89 1020.3
20201022213949 29 4 11.0 20.0 0.00 0.03 0.03 89 1020.3
20201022213449 29 10 12.0 20.0 0.00 0.03 0.03 89 1020.4
20201022212947 29 15 13.0 20.0 0.00 0.03 0.03 89 1020.0
20201022212447 29 12 11.0 20.0 0.00 0.03 0.03 89 1019.8
20201022211947 30 6 9.0 15.0 0.00 0.03 0.03 88 1020.1
20201022211451 30 13 12.0 20.0 0.00 0.03 0.03 89 1020.0
20201022210948 30 16 13.0 20.0 0.00 0.03 0.03 89 1019.4
20201022210447 30 15 15.0 21.0 0.00 0.03 0.03 89 1019.3
20201022205948 29 16 15.0 21.0 0.00 0.03 0.03 89 1019.4
20201022205448 29 8 15.0 22.0 0.00 0.03 0.03 90 1019.2
20201022204948 29 1 14.0 22.0 0.00 0.03 0.03 90 1019.3
20201022204449 30 3 13.0 20.0 0.00 0.03 0.03 89 1019.1
20201022203947 30 3 14.0 20.0 0.00 0.03 0.03 89 1019.2
20201022203447 30 358 15.0 24.0 0.00 0.03 0.03 89 1019.1
20201022202948 30 3 15.0 24.0 0.00 0.03 0.03 89 1018.8
20201022202447 30 10 15.0 20.0 0.00 0.03 0.03 90 1018.7
20201022201951 30 6 14.0 20.0 0.00 0.03 0.03 90 1018.7
20201022201448 30 4 14.0 22.0 0.00 0.03 0.03 90 1018.8
20201022200947 30 5 13.0 22.0 0.00 0.03 0.03 90 1018.8
20201022200450 30 10 15.0 23.0 0.00 0.03 0.03 90 1018.5
20201022195947 30 13 17.0 23.0 0.00 0.03 0.03 90 1018.5
20201022195448 30 7 15.0 23.0 0.00 0.03 0.03 90 1018.2
20201022194949 30 4 13.0 18.0 0.00 0.03 0.03 90 1018.3
20201022194449 30 6 14.0 20.0 0.00 0.03 0.03 90 1018.1
20201022193947 30 9 14.0 20.0 0.00 0.03 0.03 89 1018.1
20201022193448 30 9 13.0 22.0 0.00 0.03 0.03 90 1018.1
20201022192948 31 7 12.0 22.0 0.00 0.03 0.03 91 1018.1
20201022192448 31 8 13.0 19.0 0.00 0.03 0.03 91 1017.9
20201022191949 31 13 15.0 20.0 0.00 0.03 0.03 90 1018.0
20201022191448 30 13 15.0 20.0 0.00 0.03 0.03 91 1017.8
20201022190949 31 11 14.0 20.0 0.00 0.03 0.03 91 1017.8
20201022190447 31 10 14.0 20.0 0.00 0.03 0.03 91 1017.9
20201022185948 31 1 13.0 20.0 0.00 0.03 0.03 91 1018.0
20201022185450 31 1 13.0 20.0 0.00 0.03 0.03 90 1018.0
20201022184950 31 357 13.0 19.0 0.00 0.03 0.03 91 1018.0
20201022184449 31 358 12.0 19.0 0.00 0.03 0.03 90 1018.0
20201022183949 31 4 12.0 18.0 0.00 0.03 0.03 91 1017.8
20201022183450 31 359 14.0 20.0 0.00 0.03 0.03 90 1017.8
20201022182950 31 2 12.0 20.0 0.00 0.03 0.03 90 1017.9
20201022182449 32 2 11.0 18.0 0.00 0.03 0.03 91 1017.8
20201022182408 31 2 12.0 18.0 0.00 0.03 0.03 91 1017.8
20201022182258 31 3 13.0 18.0 0.00 0.03 0.03 90 1017.8
20201022180949 31 357 12.0 16.0 0.00 0.03 0.03 91 1017.7
20201022180449 32 359 12.0 16.0 0.01 0.03 0.03 91 1017.7
20201022175947 32 9 13.0 18.0 0.01 0.03 0.03 91 1017.7
20201022175451 32 6 12.0 18.0 0.01 0.03 0.03 91 1017.6
20201022174948 31 6 11.0 16.0 0.01 0.03 0.03 90 1017.6
20201022174447 32 10 12.0 18.0 0.01 0.03 0.03 92 1017.4
20201022173958 31 14 13.0 18.0 0.01 0.03 0.03 91 1017.4
20201022173450 31 13 12.0 18.0 0.01 0.03 0.03 91 1017.4
20201022172947 31 7 11.0 16.0 0.01 0.03 0.03 92 1017.5
20201022172454 31 5 12.0 16.0 0.01 0.03 0.03 91 1017.3
20201022171948 31 356 12.0 16.0 0.01 0.03 0.03 92 1017.4
20201022171448 31 354 11.0 14.0 0.01 0.03 0.03 92 1017.2
20201022170948 31 3 9.0 14.0 0.01 0.03 0.03 92 1017.4
20201022170449 31 7 9.0 13.0 0.00 0.02 0.02 93 1017.3
20201022165950 30 5 9.0 13.0 0.00 0.02 0.02 92 1017.1
20201022165453 30 1 9.0 13.0 0.00 0.02 0.02 92 1016.9
20201022164950 30 7 10.0 13.0 0.00 0.02 0.02 93 1016.8
20201022164447 30 10 9.0 13.0 0.00 0.02 0.02 93 1016.8
20201022163948 30 6 7.0 12.0 0.00 0.02 0.02 93 1016.8
20201022163450 30 12 8.0 13.0 0.00 0.02 0.02 93 1016.9
20201022162947 30 20 11.0 15.0 0.00 0.02 0.02 94 1016.7
20201022162448 30 19 11.0 15.0 0.00 0.02 0.02 94 1016.4
20201022161947 30 12 10.0 14.0 0.00 0.02 0.02 94 1016.6
20201022161449 30 11 11.0 14.0 0.00 0.02 0.02 94 1016.5
20201022160452 30 24 10.0 13.0 0.00 0.02 0.02 94 1016.7
20201022155949 30 30 11.0 15.0 0.00 0.02 0.02 94 1016.3
20201022155453 30 30 10.0 15.0 0.00 0.02 0.02 96 1016.3
20201022154953 30 25 8.0 12.0 0.00 0.02 0.02 96 1016.2
20201022154448 30 27 8.0 13.0 0.00 0.02 0.02 96 1016.1
20201022153949 30 34 9.0 13.0 0.00 0.02 0.02 96 1016.2
20201022153448 30 26 10.0 13.0 0.00 0.02 0.02 96 1016.1
20201022152949 30 24 11.0 13.0 0.00 0.02 0.02 96 1016.0
20201022152448 30 32 11.0 13.0 0.00 0.02 0.02 96 1016.0
20201022151951 30 33 10.0 14.0 0.00 0.02 0.02 96 1015.9
20201022151449 30 35 9.0 14.0 0.00 0.02 0.02 96 1015.8
20201022150949 30 34 10.0 16.0 0.00 0.02 0.02 96 1015.8
20201022150449 30 30 11.0 16.0 0.00 0.02 0.02 96 1015.6
20201022145950 30 32 10.0 15.0 0.00 0.02 0.02 96 1015.5
20201022145451 30 35 10.0 14.0 0.00 0.02 0.02 96 1015.5
20201022144952 30 35 11.0 15.0 0.00 0.02 0.02 96 1015.4
20201022144448 30 35 12.0 15.0 0.00 0.02 0.02 94 1015.4
20201022143948 30 33 11.0 14.0 0.00 0.02 0.02 94 1015.2
20201022143449 31 41 10.0 14.0 0.00 0.02 0.02 96 1015.0
20201022142949 31 43 10.0 14.0 0.00 0.02 0.02 96 1014.8
20201022142448 31 37 11.0 14.0 0.00 0.02 0.02 96 1014.7
20201022141951 31 41 10.0 14.0 0.00 0.02 0.02 96 1014.5
20201022141448 31 45 11.0 14.0 0.00 0.02 0.02 94 1014.4
20201022140949 31 47 11.0 14.0 0.00 0.02 0.02 94 1014.4
20201022140447 31 51 11.0 16.0 0.00 0.02 0.02 94 1014.2
20201022140058 31 52 12.0 16.0 0.00 0.02 0.02 94 1014.1
20201022135940 31 48 12.0 14.0 0.00 0.02 0.02 94 1013.8
20201022135225 31 50 11.0 13.0 0.00 0.02 0.02 94 1013.8
20201022134449 31 53 11.0 13.0 0.00 0.02 0.02 94 1013.9
20201022133952 31 56 11.0 13.0 0.00 0.02 0.02 94 1013.9
20201022133452 31 57 11.0 14.0 0.00 0.02 0.02 94 1013.9
20201022132948 31 53 11.0 14.0 0.00 0.02 0.02 94 1013.6
20201022132453 31 62 11.0 14.0 0.00 0.02 0.02 94 1013.6
20201022131951 31 72 11.0 15.0 0.00 0.02 0.02 94 1013.6
20201022131449 31 68 12.0 15.0 0.00 0.02 0.02 94 1013.5
20201022130948 32 65 11.0 14.0 0.00 0.02 0.02 94 1013.3
20201022130448 32 70 12.0 15.0 0.00 0.02 0.02 93 1013.2
20201022125951 32 70 13.0 15.0 0.00 0.02 0.02 93 1013.2
20201022125450 32 68 12.0 15.0 0.00 0.02 0.02 93 1013.2
20201022124954 32 70 11.0 13.0 0.00 0.02 0.02 93 1013.2
20201022124449 32 70 12.0 14.0 0.00 0.02 0.02 93 1013.2
20201022123952 32 63 12.0 14.0 0.00 0.02 0.02 93 1013.3
20201022123448 32 56 11.0 14.0 0.00 0.02 0.02 93 1013.4
20201022122950 32 57 11.0 15.0 0.00 0.02 0.02 93 1013.4
20201022122452 32 55 10.0 15.0 0.00 0.02 0.02 93 1013.3
20201022121952 32 57 10.0 15.0 0.00 0.02 0.02 93 1013.1
20201022121448 32 63 12.0 15.0 0.00 0.02 0.02 93 1012.8
20201022120953 32 63 13.0 15.0 0.00 0.02 0.02 93 1012.5
20201022120451 33 66 13.0 16.0 0.00 0.02 0.02 93 1012.5
20201022115949 33 73 13.0 16.0 0.00 0.02 0.02 92 1012.6
20201022115448 33 76 11.0 16.0 0.00 0.02 0.02 92 1012.7
20201022114949 33 70 11.0 14.0 0.00 0.02 0.02 93 1012.9
20201022114450 33 73 12.0 16.0 0.00 0.02 0.02 92 1013.0
20201022113950 33 83 12.0 16.0 0.00 0.02 0.02 92 1012.9
20201022113448 33 82 13.0 16.0 0.00 0.02 0.02 92 1013.0
20201022112950 33 76 13.0 18.0 0.00 0.02 0.02 92 1013.2
20201022112449 33 77 14.0 18.0 0.00 0.02 0.02 92 1013.2
20201022111950 34 79 14.0 18.0 0.00 0.02 0.02 92 1013.2
20201022111450 34 75 13.0 16.0 0.00 0.02 0.02 92 1013.1
20201022110948 34 75 12.0 18.0 0.00 0.02 0.02 92 1013.1
20201022110449 34 70 12.0 18.0 0.00 0.03 0.02 92 1013.2
20201022105948 34 72 12.0 15.0 0.00 0.03 0.02 92 1013.2
20201022105449 34 79 12.0 15.0 0.00 0.03 0.02 92 1013.1
20201022104949 34 75 13.0 15.0 0.00 0.03 0.02 92 1013.2
20201022104448 34 69 12.0 15.0 0.00 0.03 0.02 92 1013.3
20201022103948 34 65 11.0 15.0 0.00 0.03 0.02 92 1013.1
20201022103449 34 61 12.0 15.0 0.00 0.03 0.02 92 1013.3
20201022102953 35 57 13.0 18.0 0.00 0.03 0.02 92 1013.4
20201022102452 35 54 14.0 18.0 0.00 0.03 0.02 92 1013.3
20201022101950 35 55 15.0 20.0 0.00 0.03 0.02 91 1013.3
20201022101450 35 56 13.0 20.0 0.00 0.03 0.02 92 1013.4
20201022100949 35 55 12.0 19.0 0.00 0.03 0.02 92 1013.2
20201022100451 35 60 13.0 22.0 0.00 0.03 0.02 92 1013.1
20201022095949 36 64 13.0 22.0 0.00 0.03 0.02 92 1013.0
20201022095451 36 60 13.0 18.0 0.00 0.03 0.02 92 1012.9
20201022094956 36 61 14.0 18.0 0.00 0.03 0.02 92 1013.0
20201022094448 36 65 15.0 19.0 0.00 0.03 0.02 92 1012.9
20201022093949 36 67 14.0 19.0 0.00 0.03 0.02 92 1012.8
20201022093450 36 68 13.0 19.0 0.01 0.03 0.02 92 1012.8
20201022092949 36 69 14.0 19.0 0.01 0.04 0.02 92 1012.8
20201022092449 36 72 14.0 16.0 0.01 0.04 0.02 92 1012.7
20201022091954 36 75 13.0 16.0 0.01 0.04 0.02 92 1012.8
20201022091449 36 77 13.0 16.0 0.01 0.04 0.02 92 1012.8
20201022090949 36 76 14.0 18.0 0.02 0.04 0.02 92 1012.8
20201022090448 36 78 13.0 18.0 0.02 0.04 0.02 92 1012.9
20201022085951 36 77 12.0 15.0 0.02 0.04 0.02 92 1013.0
20201022085458 37 74 12.0 15.0 0.02 0.04 0.02 92 1013.2
20201022084949 37 69 11.0 14.0 0.02 0.04 0.02 92 1013.2
20201022084449 37 63 11.0 14.0 0.02 0.04 0.02 92 1013.2
20201022083950 37 58 11.0 14.0 0.02 0.04 0.02 92 1013.4
20201022083451 37 54 9.0 12.0 0.01 0.03 0.01 92 1013.4
20201022082949 37 56 9.0 12.0 0.01 0.03 0.01 92 1013.3
20201022082449 37 58 7.0 10.0 0.01 0.03 0.01 92 1013.4
20201022081952 37 59 6.0 10.0 0.01 0.03 0.01 92 1013.4
20201022081451 37 59 7.0 10.0 0.01 0.03 0.01 92 1013.4
20201022080950 37 60 7.0 10.0 0.00 0.02 0.00 91 1013.2
20201022080450 37 62 7.0 10.0 0.00 0.02 0.00 91 1013.2
20201022075950 37 65 7.0 10.0 0.00 0.02 0.00 90 1013.2
20201022075449 37 70 8.0 11.0 0.00 0.02 0.00 90 1013.1
20201022074949 37 72 9.0 11.0 0.00 0.02 0.00 90 1012.9
20201022074449 37 73 9.0 11.0 0.00 0.02 0.00 90 1012.8
20201022073950 37 73 9.0 13.0 0.00 0.02 0.00 90 1012.8
20201022073451 37 75 11.0 14.0 0.00 0.02 0.00 89 1012.6
20201022072951 37 76 10.0 14.0 0.00 0.02 0.00 89 1012.5
20201022072449 37 77 9.0 12.0 0.00 0.02 0.00 89 1012.4
20201022071959 37 73 10.0 14.0 0.00 0.02 0.00 89 1012.1
20201022071452 37 69 11.0 14.0 0.00 0.02 0.00 89 1011.8
20201022070949 37 67 12.0 15.0 0.00 0.02 0.00 89 1011.5
20201022070454 37 68 13.0 16.0 0.00 0.02 0.00 88 1011.6
20201022065949 38 79 14.0 19.0 0.00 0.02 0.00 88 1011.5
20201022065450 38 84 14.0 19.0 0.00 0.02 0.00 87 1011.6
20201022064949 38 81 13.0 18.0 0.00 0.02 0.00 88 1011.7
20201022064449 38 81 14.0 16.0 0.00 0.02 0.00 88 1011.6
20201022063949 38 84 14.0 16.0 0.00 0.02 0.00 87 1011.7
20201022063451 38 88 13.0 15.0 0.00 0.02 0.00 87 1012.1
20201022062952 38 90 12.0 14.0 0.00 0.02 0.00 87 1012.4
20201022062450 38 89 11.0 14.0 0.00 0.02 0.00 87 1012.4
20201022061950 38 87 11.0 14.0 0.00 0.02 0.00 86 1012.5
20201022061449 39 90 10.0 14.0 0.00 0.02 0.00 85 1012.6
20201022060949 39 96 10.0 13.0 0.00 0.02 0.00 85 1012.6
20201022060449 39 94 11.0 14.0 0.00 0.02 0.00 85 1012.5
20201022055950 39 94 11.0 14.0 0.00 0.02 0.00 84 1012.5
20201022055459 39 93 11.0 14.0 0.00 0.02 0.00 83 1012.4
20201022054955 39 92 11.0 14.0 0.00 0.02 0.00 83 1012.4
20201022054450 39 92 12.0 15.0 0.00 0.02 0.00 83 1012.5
20201022053950 39 94 13.0 16.0 0.00 0.02 0.00 82 1012.3
20201022053449 39 95 13.0 16.0 0.00 0.02 0.00 82 1012.3
20201022052949 39 95 12.0 15.0 0.00 0.02 0.00 82 1012.3
20201022052449 39 94 13.0 15.0 0.00 0.02 0.00 82 1012.3
20201022051949 39 96 13.0 16.0 0.00 0.02 0.00 82 1012.3
20201022051451 39 99 14.0 16.0 0.00 0.02 0.00 82 1012.1
20201022050949 39 99 14.0 18.0 0.00 0.02 0.00 83 1012.1
20201022050449 39 98 14.0 18.0 0.00 0.02 0.00 83 1012.2
20201022045950 39 100 14.0 19.0 0.00 0.02 0.00 83 1012.3
20201022045454 39 101 14.0 19.0 0.00 0.02 0.02 83 1012.4
20201022044950 39 102 15.0 18.0 0.00 0.02 0.02 84 1012.3
20201022044450 39 102 15.0 19.0 0.00 0.02 0.02 84 1012.3
20201022043949 39 106 13.0 19.0 0.00 0.02 0.02 84 1012.6
20201022043450 39 107 12.0 14.0 0.00 0.02 0.02 84 1012.8
20201022042949 39 106 13.0 18.0 0.00 0.02 0.02 84 1013.0
20201022042453 39 107 13.0 18.0 0.00 0.02 0.02 84 1013.0
20201022041957 39 107 13.0 18.0 0.00 0.02 0.02 84 1013.0
20201022041452 39 107 13.0 18.0 0.00 0.02 0.02 84 1013.1
20201022040950 39 106 14.0 18.0 0.00 0.02 0.02 83 1013.1
20201022040449 40 106 14.0 18.0 0.00 0.02 0.02 83 1013.0
20201022035951 40 105 14.0 18.0 0.00 0.02 0.02 83 1013.0
20201022035450 40 104 13.0 18.0 0.00 0.02 0.02 83 1013.2
20201022034950 40 101 13.0 15.0 0.00 0.02 0.02 83 1013.4
20201022034449 40 101 14.0 15.0 0.00 0.02 0.02 82 1013.2
20201022033950 40 102 14.0 16.0 0.00 0.02 0.02 82 1013.3
20201022033450 40 102 15.0 19.0 0.00 0.02 0.02 82 1013.5
20201022032949 40 102 15.0 19.0 0.00 0.02 0.02 82 1013.5
20201022032450 40 103 13.0 18.0 0.00 0.02 0.02 82 1013.5
20201022031952 40 103 12.0 15.0 0.00 0.02 0.02 81 1013.5
20201022031450 40 103 12.0 16.0 0.00 0.02 0.02 81 1013.7
20201022030952 41 113 14.0 22.0 0.00 0.02 0.02 79 1013.6
20201022030450 43 125 16.0 22.0 0.00 0.02 0.02 81 1013.6
20201022025951 43 129 17.0 22.0 0.00 0.02 0.02 81 1013.6
20201022025452 43 131 18.0 22.0 0.00 0.02 0.02 81 1013.7
20201022024950 43 132 18.0 22.0 0.00 0.02 0.02 81 1013.8
20201022024450 43 131 17.0 23.0 0.00 0.02 0.02 81 1013.7
20201022023951 43 127 16.0 23.0 0.00 0.02 0.02 81 1013.7
20201022023454 43 125 16.0 20.0 0.00 0.02 0.02 81 1013.8
20201022022949 43 127 17.0 22.0 0.00 0.02 0.02 81 1013.7
20201022022449 43 131 20.0 25.0 0.00 0.02 0.02 81 1013.7
20201022021956 43 129 20.0 25.0 0.00 0.02 0.02 81 1013.6
20201022021453 43 122 19.0 22.0 0.00 0.02 0.02 81 1013.6